Time;durP1;ratioP1;P1;durP2;ratioP2;P2;SDS_P1;SDS_P2;PMS_P1;PMS_P2;Temp;Humidity;BMP_temperature;BMP_pressure;BME280_temperature;BME280_humidity;BME280_pressure;Samples;Min_cycle;Max_cycle;Signal;HPM_P1;HPM_P2
2022/09/06 00:01:22;;;;;;;4.53;2.70;;;;;;;23.67;62.12;100271.16;5053035;28;20210;-71
2022/09/06 00:03:48;;;;;;;4.10;2.80;;;;;;;23.68;61.94;100261.28;5056408;28;20271;-71
2022/09/06 00:06:15;;;;;;;3.73;2.60;;;;;;;23.66;62.09;100255.13;5073196;28;20436;-71
2022/09/06 00:08:44;;;;;;;4.73;2.47;;;;;;;23.68;62.07;100257.59;5036750;28;20424;-71
2022/09/06 00:11:09;;;;;;;5.37;2.97;;;;;;;23.67;62.21;100251.00;5048311;28;20439;-71
2022/09/06 00:13:35;;;;;;;7.03;3.37;;;;;;;23.68;62.19;100252.63;5056627;28;20978;-70
2022/09/06 00:16:12;;;;;;;3.70;2.83;;;;;;;23.68;61.72;100257.59;5056869;28;20180;-71
2022/09/06 00:18:38;;;;;;;5.73;3.00;;;;;;;23.68;61.83;100258.38;5072171;28;20554;-71
2022/09/06 00:21:04;;;;;;;4.23;2.77;;;;;;;23.66;61.78;100260.88;5090914;28;20404;-71
2022/09/06 00:23:29;;;;;;;7.00;3.50;;;;;;;23.65;62.04;100253.47;5073336;28;20170;-71
2022/09/06 00:26:04;;;;;;;6.73;2.60;;;;;;;23.65;62.01;100241.94;5091522;28;20423;-71
2022/09/06 00:28:30;;;;;;;4.70;2.83;;;;;;;23.65;62.00;100233.31;5073082;28;20154;-71
2022/09/06 00:30:55;;;;;;;4.63;2.83;;;;;;;23.65;61.99;100230.41;5056742;28;20427;-71
2022/09/06 00:33:21;;;;;;;4.83;2.93;;;;;;;23.65;61.67;100244.84;5072411;28;20553;-71
2022/09/06 00:35:48;;;;;;;4.90;2.80;;;;;;;23.64;62.15;100243.16;5072927;28;20433;-71
2022/09/06 00:38:13;;;;;;;4.60;2.93;;;;;;;23.63;61.68;100244.41;5073373;28;20163;-71
2022/09/06 00:40:38;;;;;;;4.03;2.90;;;;;;;23.62;61.94;100270.75;5072691;28;20926;-71
2022/09/06 00:43:04;;;;;;;4.63;2.97;;;;;;;23.52;62.15;100332.97;5092028;28;20178;-71
2022/09/06 00:45:29;;;;;;;8.63;3.80;;;;;;;22.87;65.02;100361.34;5072731;28;20202;-70
2022/09/06 00:47:55;;;;;;;6.90;4.00;;;;;;;22.83;65.60;100348.97;5072710;28;20208;-70
2022/09/06 00:50:20;;;;;;;10.60;3.90;;;;;;;22.87;65.95;100331.75;5072683;28;20175;-71
2022/09/06 00:52:47;;;;;;;18.27;4.60;;;;;;;22.99;65.53;100322.69;5050643;28;20359;-71
2022/09/06 00:55:12;;;;;;;13.60;4.43;;;;;;;23.15;64.82;100318.16;5068951;28;20155;-71
2022/09/06 00:57:38;;;;;;;13.27;4.23;;;;;;;22.90;66.04;100346.13;5069146;28;20774;-70
2022/09/06 01:00:34;;;;;;;19.83;5.07;;;;;;;23.10;65.21;100335.84;5034635;28;20175;-71
2022/09/06 01:03:00;;;;;;;10.03;4.50;;;;;;;23.24;65.13;100344.50;5048471;28;20319;-72
2022/09/06 01:05:36;;;;;;;19.83;4.37;;;;;;;23.30;64.68;100350.69;5050441;28;20461;-71
2022/09/06 01:08:24;;;;;;;9.83;4.83;;;;;;;23.28;64.96;100336.69;5037017;28;20252;-71
2022/09/06 01:11:24;;;;;;;10.13;4.10;;;;;;;23.33;64.81;100347.00;5037624;28;20533;-71
2022/09/06 01:13:54;;;;;;;11.40;4.57;;;;;;;23.35;64.63;100354.00;5053521;28;20424;-71
2022/09/06 01:16:29;;;;;;;10.60;4.67;;;;;;;23.35;64.50;100358.94;5052068;28;20410;-72
2022/09/06 01:19:25;;;;;;;15.13;4.37;;;;;;;23.37;64.49;100367.97;5052908;28;20410;-71
2022/09/06 01:22:32;;;;;;;17.87;5.40;;;;;;;23.39;64.69;100360.56;5053658;28;20410;-71
2022/09/06 01:25:20;;;;;;;12.10;5.03;;;;;;;23.43;64.12;100378.66;5053050;28;20497;-71
2022/09/06 01:27:49;;;;;;;10.93;4.13;;;;;;;23.44;64.41;100385.28;5048544;28;20422;-71
2022/09/06 01:30:15;;;;;;;12.43;4.90;;;;;;;23.47;63.70;100408.31;5051876;28;20452;-71
2022/09/06 01:33:13;;;;;;;7.70;4.50;;;;;;;23.45;63.92;100407.09;5051526;28;20415;-71
2022/09/06 01:36:07;;;;;;;10.83;4.53;;;;;;;23.46;63.98;100415.31;5048658;28;20438;-71
2022/09/06 01:38:33;;;;;;;8.63;4.70;;;;;;;23.47;63.94;100419.84;5050800;28;20433;-71
2022/09/06 01:40:59;;;;;;;8.10;4.47;;;;;;;23.49;64.08;100422.31;5052010;28;20517;-71
2022/09/06 01:43:30;;;;;;;11.70;4.90;;;;;;;23.48;64.02;100432.22;5052323;28;20418;-71
2022/09/06 01:46:02;;;;;;;13.40;4.30;;;;;;;23.48;63.65;100424.38;5051268;28;20544;-71
2022/09/06 01:48:48;;;;;;;9.60;4.30;;;;;;;23.47;63.93;100421.91;5052703;28;20521;-72
2022/09/06 01:51:31;;;;;;;8.33;4.40;;;;;;;23.48;63.79;100412.84;5052635;28;20475;-71
2022/09/06 01:54:20;;;;;;;9.53;4.37;;;;;;;23.47;63.90;100413.25;5051316;28;20809;-71
2022/09/06 01:57:06;;;;;;;6.57;4.50;;;;;;;23.48;63.78;100409.97;5051819;28;20405;-71
2022/09/06 01:59:35;;;;;;;11.13;4.53;;;;;;;23.47;63.98;100398.84;5050895;28;20442;-71
2022/09/06 02:02:18;;;;;;;7.73;4.27;;;;;;;23.48;63.99;100409.16;5051591;28;20398;-71
2022/09/06 02:04:45;;;;;;;8.33;4.93;;;;;;;23.48;63.93;100409.97;5041289;28;21185;-71
2022/09/06 02:07:24;;;;;;;9.90;4.60;;;;;;;23.50;63.99;100406.66;5035106;28;21043;-72
2022/09/06 02:09:57;;;;;;;6.00;4.07;;;;;;;23.50;63.84;100393.09;5051311;28;20406;-71
2022/09/06 02:12:23;;;;;;;6.57;4.00;;;;;;;23.52;64.02;100392.66;5055169;28;20888;-71
2022/09/06 02:14:55;;;;;;;9.23;4.50;;;;;;;23.53;63.83;100394.31;5053911;28;20528;-71
2022/09/06 02:17:25;;;;;;;5.53;3.77;;;;;;;23.53;63.81;100391.44;5069713;28;20668;-71
2022/09/06 02:20:03;;;;;;;11.70;4.13;;;;;;;23.53;63.86;100379.91;5054642;28;20398;-71
2022/09/06 02:22:29;;;;;;;13.83;4.17;;;;;;;23.52;63.96;100384.00;5072135;28;21634;-71
2022/09/06 02:24:55;;;;;;;6.30;4.20;;;;;;;23.52;63.80;100381.13;5054315;28;20461;-72
2022/09/06 02:27:21;;;;;;;6.63;3.77;;;;;;;23.51;63.84;100373.72;5070926;28;20943;-71
2022/09/06 02:29:46;;;;;;;6.57;4.23;;;;;;;23.52;63.55;100375.38;5070247;28;20168;-71
2022/09/06 02:32:22;;;;;;;9.13;3.90;;;;;;;23.49;63.62;100358.91;5070429;28;20629;-71
2022/09/06 02:34:53;;;;;;;6.30;4.63;;;;;;;23.49;63.79;100359.72;5070613;28;20163;-71
2022/09/06 02:37:18;;;;;;;5.33;3.77;;;;;;;23.50;64.13;100372.91;5054516;28;20386;-72
2022/09/06 02:39:44;;;;;;;7.90;4.63;;;;;;;23.52;63.75;100366.72;5053917;28;20408;-71
2022/09/06 02:42:11;;;;;;;6.63;4.53;;;;;;;23.52;63.78;100366.72;5070119;28;20929;-70
2022/09/06 02:44:37;;;;;;;6.47;3.77;;;;;;;23.52;63.79;100358.91;5070388;28;20198;-72
2022/09/06 02:47:02;;;;;;;7.23;4.00;;;;;;;23.53;63.73;100353.97;5070527;28;20409;-72
2022/09/06 02:49:29;;;;;;;7.37;4.03;;;;;;;23.53;63.90;100348.22;5070254;28;20482;-71
2022/09/06 02:51:54;;;;;;;7.40;3.60;;;;;;;23.53;64.01;100343.25;5052117;28;20171;-71
2022/09/06 02:54:20;;;;;;;7.57;4.40;;;;;;;23.54;63.77;100344.09;5037389;28;20944;-72
2022/09/06 02:56:45;;;;;;;8.73;4.87;;;;;;;23.54;63.89;100338.31;5033273;28;20168;-71
2022/09/06 02:59:10;;;;;;;8.77;4.00;;;;;;;23.53;63.61;100343.25;5049409;28;20175;-71
2022/09/06 03:01:36;;;;;;;6.00;4.50;;;;;;;23.54;63.71;100355.63;5051305;28;20206;-72
2022/09/06 03:04:01;;;;;;;6.30;3.73;;;;;;;23.53;63.63;100346.13;5065390;28;20215;-71
2022/09/06 03:06:27;;;;;;;6.10;3.70;;;;;;;23.53;63.66;100343.25;5036802;28;20648;-72
2022/09/06 03:08:52;;;;;;;6.83;4.03;;;;;;;23.52;63.41;100350.25;5036481;28;20186;-71
2022/09/06 03:11:18;;;;;;;7.90;3.97;;;;;;;23.53;63.85;100348.22;5083815;28;20235;-72
2022/09/06 03:13:43;;;;;;;5.50;3.43;;;;;;;23.52;63.96;100358.06;5091967;28;20175;-71
2022/09/06 03:16:09;;;;;;;7.50;5.07;;;;;;;23.50;63.58;100352.75;5073495;28;20593;-70
2022/09/06 03:18:34;;;;;;;5.60;4.00;;;;;;;23.51;64.01;100353.56;5039775;28;20166;-72
2022/09/06 03:20:59;;;;;;;6.50;3.70;;;;;;;23.52;63.73;100358.06;5056074;28;20175;-71
2022/09/06 03:23:26;;;;;;;8.10;3.80;;;;;;;23.51;63.50;100345.75;5056768;28;20175;-71
2022/09/06 03:25:51;;;;;;;7.83;4.07;;;;;;;23.49;63.87;100348.19;5056725;28;20669;-71
2022/09/06 03:28:17;;;;;;;4.97;3.83;;;;;;;23.49;63.95;100342.44;5074659;28;20492;-71
2022/09/06 03:30:49;;;;;;;5.47;4.27;;;;;;;23.48;63.98;100349.44;5069399;28;20163;-72
2022/09/06 03:33:15;;;;;;;6.60;4.20;;;;;;;23.49;63.86;100336.66;5054477;28;20208;-71
2022/09/06 03:35:49;;;;;;;4.60;3.50;;;;;;;23.47;63.87;100339.16;5055308;28;20425;-71
2022/09/06 03:38:15;;;;;;;4.73;3.80;;;;;;;23.49;64.19;100341.63;5073520;28;20877;-71
2022/09/06 03:40:43;;;;;;;8.07;4.10;;;;;;;23.49;64.06;100353.97;5090956;28;20428;-70
2022/09/06 03:43:09;;;;;;;8.83;4.30;;;;;;;23.49;65.06;100353.97;5091568;28;20466;-72
2022/09/06 03:45:34;;;;;;;6.87;3.73;;;;;;;23.51;64.24;100356.44;5072871;28;20455;-71
2022/09/06 03:48:00;;;;;;;5.30;3.20;;;;;;;23.50;64.11;100352.75;5091525;28;20159;-72
2022/09/06 03:50:25;;;;;;;4.90;3.97;;;;;;;23.48;64.18;100349.44;5090686;28;20524;-72
2022/09/06 03:52:50;;;;;;;6.13;4.33;;;;;;;23.49;63.91;100353.97;5072611;28;20538;-72
2022/09/06 03:55:16;;;;;;;9.07;4.17;;;;;;;23.49;63.81;100356.84;5055118;28;20623;-71
2022/09/06 03:57:41;;;;;;;6.77;4.20;;;;;;;23.50;64.32;100354.78;5056209;28;20245;-71
2022/09/06 04:00:08;;;;;;;6.20;4.23;;;;;;;23.49;64.21;100351.06;5090653;28;20708;-72
2022/09/06 04:02:33;;;;;;;5.50;4.03;;;;;;;23.48;64.21;100349.44;5051513;28;20179;-72
2022/09/06 04:04:58;;;;;;;9.70;4.60;;;;;;;23.49;64.09;100353.16;5036434;28;20816;-72
2022/09/06 04:07:24;;;;;;;4.47;3.40;;;;;;;23.49;63.98;100350.28;5052762;28;20191;-72
2022/09/06 04:09:49;;;;;;;6.07;4.13;;;;;;;23.48;64.02;100358.09;5019730;28;20163;-72
2022/09/06 04:12:15;;;;;;;7.00;3.77;;;;;;;23.50;63.94;100351.91;5090423;28;20166;-72
2022/09/06 04:14:40;;;;;;;5.57;3.50;;;;;;;23.49;63.86;100342.44;5072162;28;20170;-71
2022/09/06 04:17:06;;;;;;;6.90;4.20;;;;;;;23.49;64.32;100348.19;5089788;28;20178;-71
2022/09/06 04:19:31;;;;;;;6.37;4.40;;;;;;;23.50;64.10;100351.91;5054989;28;20159;-72
2022/09/06 04:21:56;;;;;;;5.00;4.30;;;;;;;23.50;64.04;100352.75;5089889;28;20159;-71
2022/09/06 04:24:22;;;;;;;5.10;3.87;;;;;;;23.50;63.90;100349.03;5037828;28;20202;-71
2022/09/06 04:26:47;;;;;;;7.20;4.10;;;;;;;23.50;64.07;100360.56;5071832;28;20159;-71
2022/09/06 04:29:13;;;;;;;5.60;3.80;;;;;;;23.48;63.91;100354.41;5071373;28;20178;-71
2022/09/06 04:31:38;;;;;;;8.60;4.07;;;;;;;23.46;63.97;100354.81;5072614;28;20171;-72
2022/09/06 04:34:04;;;;;;;4.97;3.87;;;;;;;23.47;63.79;100355.59;5072556;28;20154;-72
2022/09/06 04:36:29;;;;;;;9.03;4.00;;;;;;;23.47;63.87;100355.59;5090767;28;20175;-72
2022/09/06 04:38:54;;;;;;;6.17;4.33;;;;;;;23.42;64.34;100358.91;5055580;28;20260;-72
2022/09/06 04:41:20;;;;;;;5.70;3.87;;;;;;;23.39;64.04;100354.00;5074665;28;20178;-72
2022/09/06 04:43:46;;;;;;;6.90;4.13;;;;;;;23.38;63.78;100352.34;5076181;28;20174;-71
2022/09/06 04:46:24;;;;;;;5.57;3.57;;;;;;;23.39;63.91;100349.03;5076246;28;20171;-71
2022/09/06 04:48:50;;;;;;;6.40;4.13;;;;;;;23.38;63.96;100349.47;5077551;28;20528;-71
2022/09/06 04:51:15;;;;;;;5.30;3.70;;;;;;;23.39;63.94;100354.78;5071813;28;20413;-72
2022/09/06 04:53:41;;;;;;;7.83;3.80;;;;;;;23.40;63.91;100353.59;5073482;28;20700;-71
2022/09/06 04:56:06;;;;;;;5.13;3.73;;;;;;;23.41;64.14;100348.63;5022685;28;20637;-72
2022/09/06 04:58:32;;;;;;;4.90;3.40;;;;;;;23.42;63.95;100362.63;5038877;28;20186;-72
2022/09/06 05:00:57;;;;;;;6.10;3.53;;;;;;;23.42;63.83;100356.84;5038233;28;20178;-72
2022/09/06 05:03:23;;;;;;;6.93;3.83;;;;;;;23.41;63.94;100358.09;5055084;28;20222;-71
2022/09/06 05:05:48;;;;;;;7.67;4.60;;;;;;;23.39;63.89;100354.78;5055338;28;20286;-71
2022/09/06 05:08:14;;;;;;;10.03;3.90;;;;;;;23.39;63.55;100359.75;5038258;28;20191;-71
2022/09/06 05:10:39;;;;;;;11.63;4.40;;;;;;;23.40;63.92;100353.59;5062827;28;20186;-71
2022/09/06 05:13:05;;;;;;;5.70;3.97;;;;;;;23.39;63.71;100366.31;5093898;28;20643;-72
2022/09/06 05:15:30;;;;;;;8.13;4.37;;;;;;;23.41;63.82;100369.63;5075317;28;20690;-72
2022/09/06 05:18:03;;;;;;;8.93;4.00;;;;;;;23.39;63.76;100372.06;5058223;28;20170;-71
2022/09/06 05:20:28;;;;;;;7.43;3.70;;;;;;;23.39;63.94;100369.19;5092471;28;20163;-71
2022/09/06 05:22:54;;;;;;;4.67;3.30;;;;;;;23.40;63.62;100368.00;5074095;28;20419;-71
2022/09/06 05:25:19;;;;;;;8.67;4.13;;;;;;;23.41;63.72;100371.69;5073914;28;20206;-71
2022/09/06 05:27:45;;;;;;;6.67;3.93;;;;;;;23.41;63.77;100375.41;5092360;28;20475;-71
2022/09/06 05:30:11;;;;;;;5.77;3.60;;;;;;;23.41;63.41;100369.63;5074703;28;20159;-71
2022/09/06 05:32:36;;;;;;;5.77;3.53;;;;;;;23.40;64.09;100373.75;5070445;28;20190;-71
2022/09/06 05:35:02;;;;;;;3.60;3.20;;;;;;;23.41;63.61;100389.81;5055322;28;20405;-72
2022/09/06 05:37:27;;;;;;;6.50;3.63;;;;;;;23.42;63.75;100390.59;5052420;28;20175;-71
2022/09/06 05:39:53;;;;;;;7.17;4.27;;;;;;;23.39;63.43;100395.13;5052345;28;20189;-72
2022/09/06 05:42:18;;;;;;;5.30;3.90;;;;;;;23.39;63.44;100392.25;5059349;28;20174;-72
2022/09/06 05:44:43;;;;;;;5.90;3.10;;;;;;;23.37;63.73;100391.00;5057885;28;20335;-71
2022/09/06 05:47:09;;;;;;;8.27;4.10;;;;;;;23.37;63.67;100391.84;5075759;28;20178;-72
2022/09/06 05:49:34;;;;;;;8.60;4.27;;;;;;;23.36;63.62;100395.97;5058270;28;20155;-72
2022/09/06 05:52:00;;;;;;;12.07;4.13;;;;;;;23.39;63.74;100400.09;5057317;28;20162;-72
2022/09/06 05:54:26;;;;;;;6.43;4.30;;;;;;;23.39;63.35;100397.22;5071070;28;20163;-72
2022/09/06 05:56:52;;;;;;;9.80;4.60;;;;;;;23.39;63.28;100411.63;5040968;28;20186;-72
2022/09/06 05:59:18;;;;;;;7.60;4.00;;;;;;;23.37;63.09;100397.63;5075544;28;20253;-72
2022/09/06 06:01:51;;;;;;;6.97;3.83;;;;;;;23.36;63.48;100401.75;5074757;28;20770;-71
2022/09/06 06:04:17;;;;;;;5.20;3.63;;;;;;;23.36;63.27;100395.13;5073857;28;20222;-71
2022/09/06 06:06:43;;;;;;;7.13;4.23;;;;;;;23.35;63.51;100400.09;5057370;28;20448;-70
2022/09/06 06:09:09;;;;;;;8.00;4.30;;;;;;;23.35;63.46;100408.75;5074110;28;20412;-71
2022/09/06 06:11:34;;;;;;;8.77;4.23;;;;;;;23.35;63.44;100405.84;5057631;28;20421;-70
2022/09/06 06:14:01;;;;;;;5.63;3.73;;;;;;;23.35;63.58;100420.28;5073692;28;20150;-71
2022/09/06 06:16:26;;;;;;;5.73;4.13;;;;;;;23.35;63.59;100416.56;5073485;28;20158;-71
2022/09/06 06:18:52;;;;;;;6.60;4.07;;;;;;;23.36;63.71;100419.03;5056954;28;20531;-71
2022/09/06 06:21:28;;;;;;;5.13;4.10;;;;;;;23.36;63.95;100421.91;5074316;28;20174;-71
2022/09/06 06:24:01;;;;;;;7.57;4.30;;;;;;;23.37;64.10;100423.56;5074535;28;20211;-71
2022/09/06 06:26:28;;;;;;;7.67;4.40;;;;;;;23.34;64.16;100412.84;5059429;28;20763;-71
2022/09/06 06:28:54;;;;;;;5.43;4.40;;;;;;;23.35;63.92;100408.75;5041117;28;20424;-70
2022/09/06 06:31:21;;;;;;;8.70;4.00;;;;;;;23.35;64.03;100414.50;5056780;28;20421;-71
2022/09/06 06:33:47;;;;;;;6.83;4.40;;;;;;;23.35;64.02;100408.75;5056845;28;20440;-70
2022/09/06 06:36:12;;;;;;;7.67;4.50;;;;;;;23.36;64.22;100412.44;5056408;28;20515;-71
2022/09/06 06:38:39;;;;;;;8.53;5.30;;;;;;;23.33;64.42;100416.94;5091693;28;20183;-70
2022/09/06 06:41:05;;;;;;;6.17;4.27;;;;;;;23.32;64.53;100409.56;5071806;28;20423;-70
2022/09/06 06:43:37;;;;;;;11.47;5.10;;;;;;;23.34;64.18;100414.91;5049228;28;20419;-70
2022/09/06 06:46:03;;;;;;;16.07;5.97;;;;;;;23.33;64.35;100405.44;5071792;28;20458;-70
2022/09/06 06:48:29;;;;;;;6.23;4.70;;;;;;;23.34;64.74;100407.06;5073193;28;20422;-70
2022/09/06 06:50:54;;;;;;;6.60;4.50;;;;;;;23.34;64.59;100401.31;5055926;28;20424;-70
2022/09/06 06:53:19;;;;;;;5.57;3.70;;;;;;;23.36;64.60;100404.63;5073091;28;20174;-70
2022/09/06 06:55:47;;;;;;;7.47;5.00;;;;;;;23.36;64.78;100401.75;5056159;28;20201;-70
2022/09/06 06:58:13;;;;;;;10.10;5.90;;;;;;;22.96;67.86;100404.13;5045538;28;20271;-69
2022/09/06 07:00:40;;;;;;;8.43;5.93;;;;;;;23.21;68.39;100402.13;5036136;28;20912;-69
2022/09/06 07:03:06;;;;;;;8.90;7.10;;;;;;;23.67;69.16;100402.94;5065918;28;20464;-69
2022/09/06 07:05:32;;;;;;;15.03;10.90;;;;;;;24.01;70.30;100393.44;5037319;28;20491;-68
2022/09/06 07:07:58;;;;;;;17.70;10.30;;;;;;;23.81;69.44;100389.34;5082894;28;20480;-68
2022/09/06 07:10:23;;;;;;;16.47;9.13;;;;;;;23.71;69.95;100383.59;5057909;28;20186;-68
2022/09/06 07:12:49;;;;;;;13.67;8.97;;;;;;;23.69;69.91;100378.22;5081863;28;20197;-68
2022/09/06 07:15:15;;;;;;;22.00;8.77;;;;;;;23.68;69.03;100370.81;5090083;28;20154;-69
2022/09/06 07:17:40;;;;;;;14.13;7.97;;;;;;;23.63;69.36;100356.81;5069302;28;20174;-69
2022/09/06 07:20:06;;;;;;;12.87;7.20;;;;;;;23.33;70.36;100347.81;5072120;28;20219;-69
2022/09/06 07:22:32;;;;;;;14.43;7.60;;;;;;;23.38;69.69;100350.28;5089996;28;20175;-70
2022/09/06 07:24:57;;;;;;;12.07;7.40;;;;;;;23.40;69.94;100352.75;5052237;28;20191;-71
2022/09/06 07:27:22;;;;;;;15.63;8.50;;;;;;;23.18;70.17;100363.44;5035793;28;20174;-70
2022/09/06 07:29:48;;;;;;;17.83;8.40;;;;;;;23.30;69.81;100368.81;5051894;28;20155;-70
2022/09/06 07:32:13;;;;;;;11.03;7.50;;;;;;;23.29;70.02;100378.66;5069855;28;20190;-70
2022/09/06 07:34:39;;;;;;;12.57;7.00;;;;;;;23.21;70.08;100374.16;5067306;28;20183;-71
2022/09/06 07:37:04;;;;;;;12.70;6.90;;;;;;;23.04;70.93;100377.81;5073733;28;20186;-70
2022/09/06 07:39:31;;;;;;;8.20;6.73;;;;;;;23.03;70.60;100381.13;5055322;28;20649;-72
2022/09/06 07:41:57;;;;;;;14.97;7.00;;;;;;;23.39;69.81;100377.84;5075512;28;20260;-71
2022/09/06 07:44:22;;;;;;;14.00;7.90;;;;;;;23.65;70.04;100386.09;5060913;28;20465;-71
2022/09/06 07:46:48;;;;;;;13.70;8.70;;;;;;;23.77;70.33;100388.53;5046237;28;20641;-70
2022/09/06 07:49:13;;;;;;;8.83;6.67;;;;;;;23.76;69.87;100386.88;5026182;28;20704;-71
2022/09/06 07:51:39;;;;;;;10.37;5.93;;;;;;;23.71;69.21;100387.31;5070225;28;20186;-71
2022/09/06 07:54:05;;;;;;;18.27;7.30;;;;;;;23.71;69.49;100381.53;5053349;28;20177;-71
2022/09/06 07:56:31;;;;;;;12.00;5.97;;;;;;;23.66;69.18;100376.19;5093026;28;20170;-71
2022/09/06 07:58:56;;;;;;;7.73;5.80;;;;;;;23.59;69.78;100376.19;5073489;28;20439;-70
2022/09/06 08:01:28;;;;;;;8.00;6.10;;;;;;;23.60;69.23;100372.09;5074182;28;20187;-71
2022/09/06 08:03:57;;;;;;;9.50;5.37;;;;;;;23.43;70.54;100372.91;5057379;28;20219;-71
2022/09/06 08:06:23;;;;;;;11.50;5.80;;;;;;;23.45;69.56;100373.34;5052295;28;20457;-71
2022/09/06 08:08:49;;;;;;;12.03;5.27;;;;;;;23.52;69.32;100379.09;5069747;28;20406;-71
2022/09/06 08:11:16;;;;;;;9.33;5.67;;;;;;;23.52;69.27;100372.47;5048422;28;20448;-70
2022/09/06 08:13:41;;;;;;;9.80;5.97;;;;;;;23.53;69.59;100379.91;5036386;28;20183;-71
2022/09/06 08:16:08;;;;;;;12.43;4.80;;;;;;;23.65;70.02;100386.09;5070023;28;20424;-71
2022/09/06 08:18:34;;;;;;;6.43;4.80;;;;;;;23.61;69.88;100393.91;5075153;28;20183;-71
2022/09/06 08:21:10;;;;;;;10.20;4.77;;;;;;;23.62;69.21;100395.53;5056528;28;20500;-71
2022/09/06 08:23:36;;;;;;;13.43;4.80;;;;;;;23.63;69.33;100396.38;5052492;28;20500;-71
2022/09/06 08:26:02;;;;;;;13.07;5.33;;;;;;;23.58;68.98;100394.72;5055381;28;20456;-72
2022/09/06 08:28:27;;;;;;;8.30;4.83;;;;;;;23.61;70.09;100399.66;5045882;28;20936;-70
2022/09/06 08:30:53;;;;;;;12.43;5.80;;;;;;;23.64;69.51;100407.47;5039689;28;20187;-70
2022/09/06 08:33:24;;;;;;;13.50;5.37;;;;;;;23.61;70.74;100408.31;5047835;28;20167;-70
2022/09/06 08:35:56;;;;;;;9.63;5.40;;;;;;;23.67;70.05;100398.00;5055097;28;20205;-70
2022/09/06 08:38:22;;;;;;;8.87;4.73;;;;;;;23.63;70.50;100405.84;5056962;28;20903;-71
2022/09/06 08:40:47;;;;;;;7.03;4.97;;;;;;;23.72;70.22;100402.53;5035011;28;20482;-70
2022/09/06 08:43:15;;;;;;;6.30;4.60;;;;;;;23.78;69.58;100415.31;5071109;28;20179;-70
2022/09/06 08:45:40;;;;;;;6.27;4.73;;;;;;;23.80;69.56;100413.66;5051068;28;20204;-70
2022/09/06 08:48:06;;;;;;;10.00;5.27;;;;;;;23.61;70.06;100419.84;5070457;28;20797;-69
2022/09/06 08:50:31;;;;;;;8.97;5.20;;;;;;;23.66;68.78;100409.94;5070467;28;20645;-70
2022/09/06 08:53:14;;;;;;;9.27;5.30;;;;;;;23.61;69.60;100414.09;5054972;28;20175;-71
2022/09/06 08:55:55;;;;;;;9.93;5.20;;;;;;;23.58;68.98;100417.78;5054596;28;20179;-70
2022/09/06 08:58:35;;;;;;;12.10;5.40;;;;;;;23.57;68.98;100415.31;5054931;28;20409;-70
2022/09/06 09:01:11;;;;;;;10.23;5.20;;;;;;;23.61;68.88;100419.00;5064069;28;20425;-71
2022/09/06 09:03:38;;;;;;;14.23;5.50;;;;;;;23.66;68.21;100415.72;5081490;28;20467;-72
2022/09/06 09:06:05;;;;;;;12.37;5.10;;;;;;;23.63;68.34;100414.47;5077002;28;20448;-71
2022/09/06 09:08:36;;;;;;;14.50;5.43;;;;;;;23.69;67.68;100414.91;5052956;28;20420;-71
2022/09/06 09:11:04;;;;;;;9.57;4.90;;;;;;;23.68;67.34;100413.25;5066541;28;20422;-71
2022/09/06 09:13:37;;;;;;;9.20;5.30;;;;;;;23.69;67.61;100409.13;5050770;28;20409;-71
2022/09/06 09:16:03;;;;;;;8.50;4.70;;;;;;;23.71;67.55;100406.66;5052715;28;20940;-71
2022/09/06 09:18:31;;;;;;;14.00;5.10;;;;;;;23.77;67.97;100411.59;5053480;28;20482;-71
2022/09/06 09:20:57;;;;;;;16.73;5.33;;;;;;;23.79;67.81;100409.09;5062232;28;20911;-71
2022/09/06 09:23:22;;;;;;;10.77;4.77;;;;;;;23.80;67.43;100412.81;5088327;28;20421;-70
2022/09/06 09:25:48;;;;;;;14.10;4.90;;;;;;;23.83;67.36;100409.94;5090207;28;20853;-70
2022/09/06 09:28:16;;;;;;;11.03;4.77;;;;;;;23.85;66.85;100401.69;5073328;28;20186;-71
2022/09/06 09:30:59;;;;;;;6.90;4.40;;;;;;;23.86;66.89;100400.47;5054730;28;20179;-71
2022/09/06 09:33:35;;;;;;;10.80;5.13;;;;;;;23.85;66.61;100410.34;5071167;28;20447;-71
2022/09/06 09:36:07;;;;;;;10.40;4.67;;;;;;;23.86;66.45;100408.28;5054708;28;20948;-71
2022/09/06 09:38:41;;;;;;;7.83;4.43;;;;;;;23.87;66.33;100409.91;5053577;28;20825;-71
2022/09/06 09:41:07;;;;;;;11.77;5.07;;;;;;;23.88;66.35;100412.38;5070963;28;20424;-71
2022/09/06 09:43:39;;;;;;;12.73;4.63;;;;;;;23.89;66.13;100407.50;5070884;28;20486;-71
2022/09/06 09:46:15;;;;;;;12.23;4.03;;;;;;;23.87;65.96;100395.50;5053631;28;20190;-71
2022/09/06 09:48:59;;;;;;;16.63;3.80;;;;;;;23.87;65.81;100399.22;5053470;28;20453;-71
2022/09/06 09:51:25;;;;;;;10.93;4.10;;;;;;;23.92;65.51;100392.22;5055655;28;20868;-69
2022/09/06 09:54:04;;;;;;;11.00;4.13;;;;;;;23.91;65.50;100391.41;5053251;28;20551;-70
2022/09/06 09:56:51;;;;;;;17.60;4.67;;;;;;;23.90;65.73;100386.91;5053737;28;20200;-70
2022/09/06 09:59:43;;;;;;;16.53;4.37;;;;;;;23.92;65.81;100384.41;5055177;28;20440;-70
2022/09/06 10:02:22;;;;;;;14.23;4.50;;;;;;;23.91;66.29;100382.75;5071965;28;20447;-70
2022/09/06 10:04:49;;;;;;;10.53;4.13;;;;;;;23.92;66.55;100381.53;5051646;28;20461;-70
2022/09/06 10:07:24;;;;;;;10.63;4.27;;;;;;;23.93;66.58;100377.38;5052266;28;20951;-70
2022/09/06 10:10:00;;;;;;;12.60;4.50;;;;;;;23.96;66.64;100369.97;5016450;28;20513;-70
2022/09/06 10:12:37;;;;;;;11.70;4.17;;;;;;;23.94;66.60;100381.09;5034029;28;20433;-70
2022/09/06 10:15:03;;;;;;;19.17;4.20;;;;;;;23.92;66.55;100375.75;5034521;28;20426;-70
2022/09/06 10:17:37;;;;;;;12.97;4.97;;;;;;;23.93;66.58;100367.94;5033486;28;20851;-70
2022/09/06 10:20:08;;;;;;;10.50;4.40;;;;;;;23.96;66.95;100361.31;5050612;28;20406;-70
2022/09/06 10:22:39;;;;;;;10.07;4.07;;;;;;;23.94;66.41;100360.91;5050303;28;21006;-70
2022/09/06 10:25:10;;;;;;;11.43;4.20;;;;;;;23.95;66.75;100356.78;5050873;28;20453;-70
2022/09/06 10:27:36;;;;;;;13.23;5.47;;;;;;;24.03;66.74;100355.53;5049920;28;20795;-70
2022/09/06 10:30:06;;;;;;;14.40;4.17;;;;;;;24.04;66.64;100357.19;5032557;28;20441;-70
2022/09/06 10:32:44;;;;;;;14.13;4.43;;;;;;;24.05;66.88;100359.66;5048941;28;20207;-70
2022/09/06 10:35:22;;;;;;;9.73;4.23;;;;;;;24.08;67.09;100363.78;5049266;28;20391;-70
2022/09/06 10:38:14;;;;;;;12.73;4.20;;;;;;;24.09;66.78;100354.66;5015455;28;20424;-70
2022/09/06 10:41:15;;;;;;;12.67;4.33;;;;;;;24.09;66.51;100351.78;5050238;28;20438;-70
2022/09/06 10:44:10;;;;;;;10.80;4.87;;;;;;;24.09;66.89;100342.34;5050945;28;20475;-70
2022/09/06 10:46:36;;;;;;;16.10;3.90;;;;;;;24.16;66.19;100346.00;5019184;28;20815;-70
2022/09/06 10:49:01;;;;;;;13.10;4.60;;;;;;;24.18;65.93;100352.16;5033126;28;20429;-70
2022/09/06 10:51:36;;;;;;;11.53;4.23;;;;;;;24.24;64.88;100341.84;5048548;28;20249;-70
2022/09/06 10:54:06;;;;;;;11.53;4.80;;;;;;;24.27;64.55;100343.91;5038268;28;20619;-70
2022/09/06 10:56:36;;;;;;;7.83;3.50;;;;;;;24.39;64.28;100339.72;5028733;28;20411;-70
2022/09/06 10:59:06;;;;;;;11.57;4.03;;;;;;;24.33;64.53;100333.56;5028447;28;20895;-70
2022/09/06 11:02:08;;;;;;;12.13;3.50;;;;;;;24.38;64.69;100327.34;5029060;28;20519;-70
2022/09/06 11:04:38;;;;;;;15.63;3.97;;;;;;;24.33;64.73;100322.00;5047019;28;20902;-70
2022/09/06 11:07:25;;;;;;;11.17;3.40;;;;;;;24.34;64.35;100320.75;5053479;28;20715;-70
2022/09/06 11:09:52;;;;;;;9.77;4.40;;;;;;;24.30;64.17;100330.69;5061776;28;21032;-70
2022/09/06 11:12:31;;;;;;;12.13;3.70;;;;;;;24.31;64.19;100321.63;5069701;28;20402;-70
2022/09/06 11:14:56;;;;;;;5.83;3.43;;;;;;;24.34;64.12;100323.66;5054175;28;20816;-70
2022/09/06 11:17:30;;;;;;;11.80;3.87;;;;;;;24.37;63.51;100328.59;5070399;28;20403;-70
2022/09/06 11:20:05;;;;;;;6.63;3.27;;;;;;;24.36;63.57;100317.47;5036352;28;20184;-70
2022/09/06 11:22:43;;;;;;;8.90;3.70;;;;;;;24.39;63.11;100328.97;5016240;28;20429;-70
2022/09/06 11:25:47;;;;;;;9.17;4.20;;;;;;;24.37;63.30;100319.94;5049474;28;20458;-70
2022/09/06 11:28:15;;;;;;;7.53;3.23;;;;;;;24.39;62.63;100316.63;5046374;28;20422;-70
2022/09/06 11:30:47;;;;;;;7.13;2.90;;;;;;;24.38;63.13;100327.34;5051369;28;20472;-70
2022/09/06 11:33:29;;;;;;;11.00;2.87;;;;;;;24.44;62.08;100310.44;5032432;28;20428;-71